Dresser, Indiana
Current Conditions -  °F | °C
As of 4:53 PM on Friday 19 Dec 2014 (Local Time) from KHUF Reporting Station
Overcast Overcast  
Wind Chill: 33°   Ceiling: 3000
Heat Index: 33°   Visibility: 10mi
Dew Point: 23°   Wind: 3mph
Humidity: 66%   Direction: 70°ENE
Pressure: 30.31"   Gusts: NA
Location:  39.5107°N, 87.4772°W
Report Text: KHUF 192153Z AUTO 07003KT 10SM OVC030 01/M05 A3031 RMK AO2 SLP270 T00061050
Loading
Personal Weather Stations






























Interactive Weather Map New forecast layout! Learn more

10-Day Weather Forecast

Advertisements
Track Severe Weather on mobile